sensor_id;sensor_type;location;lat;lon;timestamp;pressure;altitude;pressure_sealevel;temperature;humidity
14295;BME280;7231;59.370;18.016;2024-02-04T00:00:49;98716.78;;;3.23;70.98
14295;BME280;7231;59.370;18.016;2024-02-04T00:03:18;98724.47;;;3.20;70.77
14295;BME280;7231;59.370;18.016;2024-02-04T00:05:49;98704.44;;;3.11;71.03
14295;BME280;7231;59.370;18.016;2024-02-04T00:08:17;98715.84;;;3.19;70.87
14295;BME280;7231;59.370;18.016;2024-02-04T00:10:45;98708.03;;;3.18;71.13
14295;BME280;7231;59.370;18.016;2024-02-04T00:13:15;98711.44;;;3.15;70.58
14295;BME280;7231;59.370;18.016;2024-02-04T00:15:43;98701.00;;;3.12;70.75
14295;BME280;7231;59.370;18.016;2024-02-04T00:18:11;98713.28;;;3.21;70.50
14295;BME280;7231;59.370;18.016;2024-02-04T00:20:39;98720.38;;;3.30;70.52
14295;BME280;7231;59.370;18.016;2024-02-04T00:23:07;98718.66;;;3.30;69.96
14295;BME280;7231;59.370;18.016;2024-02-04T00:25:35;98733.41;;;3.33;70.00
14295;BME280;7231;59.370;18.016;2024-02-04T00:28:05;98715.25;;;3.31;70.13
14295;BME280;7231;59.370;18.016;2024-02-04T00:30:34;98726.34;;;3.25;70.07
14295;BME280;7231;59.370;18.016;2024-02-04T00:33:03;98723.78;;;3.27;70.31
14295;BME280;7231;59.370;18.016;2024-02-04T00:35:31;98727.22;;;3.26;70.30
14295;BME280;7231;59.370;18.016;2024-02-04T00:38:00;98722.88;;;3.25;70.55
14295;BME280;7231;59.370;18.016;2024-02-04T00:40:29;98680.84;;;2.99;70.67
14295;BME280;7231;59.370;18.016;2024-02-04T00:43:00;98727.91;;;3.19;70.41
14295;BME280;7231;59.370;18.016;2024-02-04T00:45:28;98735.63;;;3.17;70.29
14295;BME280;7231;59.370;18.016;2024-02-04T00:47:58;98726.84;;;3.11;70.38
14295;BME280;7231;59.370;18.016;2024-02-04T00:50:26;98731.19;;;3.12;70.23
14295;BME280;7231;59.370;18.016;2024-02-04T00:52:54;98734.69;;;3.14;70.08
14295;BME280;7231;59.370;18.016;2024-02-04T00:55:22;98722.63;;;3.14;69.73
14295;BME280;7231;59.370;18.016;2024-02-04T00:57:50;98739.88;;;3.14;69.63
14295;BME280;7231;59.370;18.016;2024-02-04T01:00:19;98733.00;;;3.16;68.97
14295;BME280;7231;59.370;18.016;2024-02-04T01:02:47;98730.50;;;3.19;68.49
14295;BME280;7231;59.370;18.016;2024-02-04T01:05:17;98739.16;;;3.21;68.40
14295;BME280;7231;59.370;18.016;2024-02-04T01:07:46;98722.69;;;3.17;67.50
14295;BME280;7231;59.370;18.016;2024-02-04T01:10:14;98734.91;;;3.23;67.57
14295;BME280;7231;59.370;18.016;2024-02-04T01:12:42;98722.75;;;3.20;67.26
14295;BME280;7231;59.370;18.016;2024-02-04T01:15:10;98734.00;;;3.21;66.92
14295;BME280;7231;59.370;18.016;2024-02-04T01:17:39;98735.78;;;3.23;67.12
14295;BME280;7231;59.370;18.016;2024-02-04T01:20:08;98724.38;;;3.15;66.64
14295;BME280;7231;59.370;18.016;2024-02-04T01:22:38;98732.97;;;3.14;66.56
14295;BME280;7231;59.370;18.016;2024-02-04T01:25:08;98752.09;;;3.19;66.17
14295;BME280;7231;59.370;18.016;2024-02-04T01:27:36;98737.50;;;3.23;65.60
14295;BME280;7231;59.370;18.016;2024-02-04T01:30:05;98731.44;;;3.22;65.05
14295;BME280;7231;59.370;18.016;2024-02-04T01:32:34;98733.22;;;3.25;64.75
14295;BME280;7231;59.370;18.016;2024-02-04T01:35:02;98739.28;;;3.25;64.54
14295;BME280;7231;59.370;18.016;2024-02-04T01:37:30;98729.78;;;3.26;64.26
14295;BME280;7231;59.370;18.016;2024-02-04T01:40:00;98714.97;;;3.19;63.93
14295;BME280;7231;59.370;18.016;2024-02-04T01:42:28;98645.72;;;2.73;63.30
14295;BME280;7231;59.370;18.016;2024-02-04T01:44:56;98725.63;;;3.33;63.40
14295;BME280;7231;59.370;18.016;2024-02-04T01:47:24;98752.47;;;3.36;62.57
14295;BME280;7231;59.370;18.016;2024-02-04T01:49:52;98758.44;;;3.32;63.30
14295;BME280;7231;59.370;18.016;2024-02-04T01:52:20;98743.72;;;3.31;63.25
14295;BME280;7231;59.370;18.016;2024-02-04T01:54:49;98743.72;;;3.31;62.94
14295;BME280;7231;59.370;18.016;2024-02-04T01:57:19;98740.91;;;3.22;62.78
14295;BME280;7231;59.370;18.016;2024-02-04T01:59:48;98660.38;;;2.72;62.80
14295;BME280;7231;59.370;18.016;2024-02-04T02:02:18;98750.56;;;3.28;62.75
14295;BME280;7231;59.370;18.016;2024-02-04T02:04:47;98762.59;;;3.25;62.65
14295;BME280;7231;59.370;18.016;2024-02-04T02:07:15;98757.25;;;3.19;62.49
14295;BME280;7231;59.370;18.016;2024-02-04T02:09:45;98772.06;;;3.25;62.58
14295;BME280;7231;59.370;18.016;2024-02-04T02:12:16;98746.88;;;3.18;62.39
14295;BME280;7231;59.370;18.016;2024-02-04T02:14:50;98756.44;;;3.20;62.36
14295;BME280;7231;59.370;18.016;2024-02-04T02:17:26;98765.06;;;3.21;61.91
14295;BME280;7231;59.370;18.016;2024-02-04T02:20:01;98761.53;;;3.17;62.37
14295;BME280;7231;59.370;18.016;2024-02-04T02:22:41;98757.09;;;3.12;62.12
14295;BME280;7231;59.370;18.016;2024-02-04T02:25:16;98758.84;;;3.13;61.93
14295;BME280;7231;59.370;18.016;2024-02-04T02:27:48;98753.69;;;3.14;61.75
14295;BME280;7231;59.370;18.016;2024-02-04T02:30:18;98756.16;;;3.10;62.02
14295;BME280;7231;59.370;18.016;2024-02-04T02:32:48;98756.97;;;3.07;61.64
14295;BME280;7231;59.370;18.016;2024-02-04T02:35:17;98774.44;;;3.16;61.39
14295;BME280;7231;59.370;18.016;2024-02-04T02:37:53;98787.38;;;3.16;61.21
14295;BME280;7231;59.370;18.016;2024-02-04T02:40:29;98783.03;;;3.15;61.12
14295;BME280;7231;59.370;18.016;2024-02-04T02:43:00;98785.63;;;3.15;61.00
14295;BME280;7231;59.370;18.016;2024-02-04T02:45:30;98809.81;;;3.15;60.71
14295;BME280;7231;59.370;18.016;2024-02-04T02:48:00;98815.00;;;3.15;60.85
14295;BME280;7231;59.370;18.016;2024-02-04T02:50:29;98784.53;;;3.05;60.81
14295;BME280;7231;59.370;18.016;2024-02-04T02:52:57;98807.03;;;3.08;61.25
14295;BME280;7231;59.370;18.016;2024-02-04T02:55:26;98789.72;;;3.05;60.66
14295;BME280;7231;59.370;18.016;2024-02-04T02:57:55;98787.91;;;3.03;60.49
14295;BME280;7231;59.370;18.016;2024-02-04T03:00:23;98808.59;;;3.01;60.49
14295;BME280;7231;59.370;18.016;2024-02-04T03:02:51;98790.44;;;3.00;60.67
14295;BME280;7231;59.370;18.016;2024-02-04T03:05:19;98780.00;;;2.97;60.59
14295;BME280;7231;59.370;18.016;2024-02-04T03:07:48;98781.69;;;2.94;60.69
14295;BME280;7231;59.370;18.016;2024-02-04T03:10:16;98792.03;;;2.94;60.61
14295;BME280;7231;59.370;18.016;2024-02-04T03:12:46;98777.31;;;2.92;60.72
14295;BME280;7231;59.370;18.016;2024-02-04T03:15:14;98779.84;;;2.90;60.47
14295;BME280;7231;59.370;18.016;2024-02-04T03:17:43;98780.66;;;2.88;60.72
14295;BME280;7231;59.370;18.016;2024-02-04T03:20:11;98778.84;;;2.85;60.21
14295;BME280;7231;59.370;18.016;2024-02-04T03:22:39;98777.09;;;2.84;60.23
14295;BME280;7231;59.370;18.016;2024-02-04T03:25:08;98783.03;;;2.80;60.26
14295;BME280;7231;59.370;18.016;2024-02-04T03:27:36;98790.09;;;2.86;59.39
14295;BME280;7231;59.370;18.016;2024-02-04T03:30:07;98779.78;;;2.87;59.10
14295;BME280;7231;59.370;18.016;2024-02-04T03:32:35;98777.78;;;2.77;59.32
14295;BME280;7231;59.370;18.016;2024-02-04T03:35:04;98792.59;;;2.83;59.53
14295;BME280;7231;59.370;18.016;2024-02-04T03:37:32;98782.13;;;2.78;59.00
14295;BME280;7231;59.370;18.016;2024-02-04T03:40:00;98782.88;;;2.74;59.44
14295;BME280;7231;59.370;18.016;2024-02-04T03:42:28;98793.16;;;2.71;58.30
14295;BME280;7231;59.370;18.016;2024-02-04T03:44:56;98788.06;;;2.74;58.34
14295;BME280;7231;59.370;18.016;2024-02-04T03:47:26;98782.72;;;2.68;58.50
14295;BME280;7231;59.370;18.016;2024-02-04T03:49:54;98795.69;;;2.70;58.34
14295;BME280;7231;59.370;18.016;2024-02-04T03:52:22;98800.78;;;2.67;58.06
14295;BME280;7231;59.370;18.016;2024-02-04T03:54:50;98789.50;;;2.63;57.85
14295;BME280;7231;59.370;18.016;2024-02-04T03:57:19;98772.97;;;2.56;57.41
14295;BME280;7231;59.370;18.016;2024-02-04T03:59:47;98785.22;;;2.65;57.42
14295;BME280;7231;59.370;18.016;2024-02-04T04:02:15;98802.47;;;2.65;57.30
14295;BME280;7231;59.370;18.016;2024-02-04T04:04:45;98793.63;;;2.55;57.39
14295;BME280;7231;59.370;18.016;2024-02-04T04:07:14;98845.38;;;2.56;57.89
14295;BME280;7231;59.370;18.016;2024-02-04T04:09:43;98799.59;;;2.52;57.92
14295;BME280;7231;59.370;18.016;2024-02-04T04:12:11;98809.13;;;2.55;57.35
14295;BME280;7231;59.370;18.016;2024-02-04T04:14:39;98808.25;;;2.54;57.24
14295;BME280;7231;59.370;18.016;2024-02-04T04:17:07;98810.75;;;2.51;57.74
14295;BME280;7231;59.370;18.016;2024-02-04T04:19:36;98824.56;;;2.52;57.79
14295;BME280;7231;59.370;18.016;2024-02-04T04:22:05;98818.56;;;2.53;57.44
14295;BME280;7231;59.370;18.016;2024-02-04T04:24:34;98816.81;;;2.52;57.27
14295;BME280;7231;59.370;18.016;2024-02-04T04:27:02;98812.22;;;2.42;57.69
14295;BME280;7231;59.370;18.016;2024-02-04T04:29:31;98825.28;;;2.46;57.55
14295;BME280;7231;59.370;18.016;2024-02-04T04:31:59;98822.72;;;2.48;57.49
14295;BME280;7231;59.370;18.016;2024-02-04T04:34:27;98830.50;;;2.48;57.30
14295;BME280;7231;59.370;18.016;2024-02-04T04:36:55;98843.38;;;2.46;57.44
14295;BME280;7231;59.370;18.016;2024-02-04T04:39:24;98829.53;;;2.44;57.50
14295;BME280;7231;59.370;18.016;2024-02-04T04:41:53;98821.44;;;2.32;57.39
14295;BME280;7231;59.370;18.016;2024-02-04T04:44:21;98817.78;;;2.25;58.06
14295;BME280;7231;59.370;18.016;2024-02-04T04:46:49;98821.34;;;2.29;57.83
14295;BME280;7231;59.370;18.016;2024-02-04T04:49:17;98829.19;;;2.32;57.64
14295;BME280;7231;59.370;18.016;2024-02-04T04:51:45;98783.50;;;2.01;57.26
14295;BME280;7231;59.370;18.016;2024-02-04T04:54:14;98812.72;;;2.28;57.37
14295;BME280;7231;59.370;18.016;2024-02-04T04:56:43;98828.31;;;2.32;57.62
14295;BME280;7231;59.370;18.016;2024-02-04T04:59:11;98827.41;;;2.30;57.76
14295;BME280;7231;59.370;18.016;2024-02-04T05:01:45;98792.34;;;2.09;56.96
14295;BME280;7231;59.370;18.016;2024-02-04T05:04:15;98832.59;;;2.31;57.40
14295;BME280;7231;59.370;18.016;2024-02-04T05:06:44;98822.19;;;2.28;57.04
14295;BME280;7231;59.370;18.016;2024-02-04T05:09:12;98833.41;;;2.28;57.29
14295;BME280;7231;59.370;18.016;2024-02-04T05:11:40;98822.97;;;2.25;57.41
14295;BME280;7231;59.370;18.016;2024-02-04T05:14:10;98819.47;;;2.23;57.52
14295;BME280;7231;59.370;18.016;2024-02-04T05:16:38;98807.38;;;2.22;57.02
14295;BME280;7231;59.370;18.016;2024-02-04T05:19:06;98836.72;;;2.24;57.13
14295;BME280;7231;59.370;18.016;2024-02-04T05:21:37;98801.06;;;2.13;56.44
14295;BME280;7231;59.370;18.016;2024-02-04T05:24:06;98834.09;;;2.23;56.96
14295;BME280;7231;59.370;18.016;2024-02-04T05:26:35;98813.19;;;2.15;56.49
14295;BME280;7231;59.370;18.016;2024-02-04T05:29:03;98828.88;;;2.21;56.88
14295;BME280;7231;59.370;18.016;2024-02-04T05:31:32;98813.13;;;2.12;57.14
14295;BME280;7231;59.370;18.016;2024-02-04T05:34:05;98812.22;;;2.12;57.17
14295;BME280;7231;59.370;18.016;2024-02-04T05:36:33;98829.44;;;2.11;57.48
14295;BME280;7231;59.370;18.016;2024-02-04T05:39:09;98819.06;;;2.10;56.88
14295;BME280;7231;59.370;18.016;2024-02-04T05:41:37;98817.22;;;2.06;57.55
14295;BME280;7231;59.370;18.016;2024-02-04T05:44:05;98824.00;;;2.02;57.04
14295;BME280;7231;59.370;18.016;2024-02-04T05:46:37;98840.44;;;2.04;56.98
14295;BME280;7231;59.370;18.016;2024-02-04T05:49:06;98805.88;;;2.01;57.29
14295;BME280;7231;59.370;18.016;2024-02-04T05:51:37;98812.94;;;2.06;57.46
14295;BME280;7231;59.370;18.016;2024-02-04T05:54:06;98816.22;;;2.01;57.43
14295;BME280;7231;59.370;18.016;2024-02-04T05:56:34;98823.13;;;2.02;57.47
14295;BME280;7231;59.370;18.016;2024-02-04T05:59:03;98823.97;;;2.01;57.50
14295;BME280;7231;59.370;18.016;2024-02-04T06:01:32;98824.66;;;1.95;57.54
14295;BME280;7231;59.370;18.016;2024-02-04T06:04:02;98821.28;;;1.98;57.30
14295;BME280;7231;59.370;18.016;2024-02-04T06:06:30;98829.88;;;1.97;57.13
14295;BME280;7231;59.370;18.016;2024-02-04T06:08:59;98841.84;;;1.93;57.54
14295;BME280;7231;59.370;18.016;2024-02-04T06:11:27;98846.84;;;1.88;57.98
14295;BME280;7231;59.370;18.016;2024-02-04T06:13:55;98845.09;;;1.87;58.10
14295;BME280;7231;59.370;18.016;2024-02-04T06:16:23;98844.22;;;1.87;57.69
14295;BME280;7231;59.370;18.016;2024-02-04T06:18:51;98843.31;;;1.85;58.30
14295;BME280;7231;59.370;18.016;2024-02-04T06:21:24;98818.63;;;1.66;58.28
14295;BME280;7231;59.370;18.016;2024-02-04T06:23:52;98841.38;;;1.78;58.42
14295;BME280;7231;59.370;18.016;2024-02-04T06:26:20;98850.78;;;1.76;58.30
14295;BME280;7231;59.370;18.016;2024-02-04T06:28:48;98849.84;;;1.74;58.35
14295;BME280;7231;59.370;18.016;2024-02-04T06:31:18;98821.78;;;1.57;58.05
14295;BME280;7231;59.370;18.016;2024-02-04T06:33:46;98854.81;;;1.68;58.27
14295;BME280;7231;59.370;18.016;2024-02-04T06:36:14;98843.56;;;1.66;58.66
14295;BME280;7231;59.370;18.016;2024-02-04T06:38:44;98844.31;;;1.61;58.85
14295;BME280;7231;59.370;18.016;2024-02-04T06:41:12;98838.25;;;1.61;59.12
14295;BME280;7231;59.370;18.016;2024-02-04T06:43:40;98831.09;;;1.52;59.16
14295;BME280;7231;59.370;18.016;2024-02-04T06:46:08;98823.06;;;1.43;59.34
14295;BME280;7231;59.370;18.016;2024-02-04T06:48:37;98854.34;;;1.52;59.85
14295;BME280;7231;59.370;18.016;2024-02-04T06:51:05;98854.28;;;1.51;59.39
14295;BME280;7231;59.370;18.016;2024-02-04T06:53:33;98856.94;;;1.52;59.27
14295;BME280;7231;59.370;18.016;2024-02-04T06:56:03;98868.91;;;1.50;60.35
14295;BME280;7231;59.370;18.016;2024-02-04T06:58:31;98854.28;;;1.51;59.75
14295;BME280;7231;59.370;18.016;2024-02-04T07:00:59;98863.84;;;1.53;60.30
14295;BME280;7231;59.370;18.016;2024-02-04T07:03:28;98855.22;;;1.53;59.90
14295;BME280;7231;59.370;18.016;2024-02-04T07:05:57;98786.78;;;1.12;60.29
14295;BME280;7231;59.370;18.016;2024-02-04T07:08:25;98859.47;;;1.51;60.43
14295;BME280;7231;59.370;18.016;2024-02-04T07:10:54;98846.41;;;1.46;60.59
14295;BME280;7231;59.370;18.016;2024-02-04T07:13:27;98856.78;;;1.48;60.90
14295;BME280;7231;59.370;18.016;2024-02-04T07:15:55;98862.09;;;1.52;60.46
14295;BME280;7231;59.370;18.016;2024-02-04T07:18:23;98847.38;;;1.50;60.68
14295;BME280;7231;59.370;18.016;2024-02-04T07:20:52;98856.19;;;1.56;60.71
14295;BME280;7231;59.370;18.016;2024-02-04T07:23:20;98845.72;;;1.52;60.76
14295;BME280;7231;59.370;18.016;2024-02-04T07:25:48;98845.97;;;1.59;61.01
14295;BME280;7231;59.370;18.016;2024-02-04T07:28:16;98836.38;;;1.55;60.23
14295;BME280;7231;59.370;18.016;2024-02-04T07:30:46;98841.81;;;1.65;60.30
14295;BME280;7231;59.370;18.016;2024-02-04T07:33:14;98857.41;;;1.68;60.17
14295;BME280;7231;59.370;18.016;2024-02-04T07:35:42;98831.28;;;1.58;59.99
14295;BME280;7231;59.370;18.016;2024-02-04T07:38:11;98842.06;;;1.72;59.41
14295;BME280;7231;59.370;18.016;2024-02-04T07:40:39;98827.34;;;1.70;59.63
14295;BME280;7231;59.370;18.016;2024-02-04T07:43:07;98842.19;;;1.77;60.06
14295;BME280;7231;59.370;18.016;2024-02-04T07:45:35;98829.28;;;1.77;59.49
14295;BME280;7231;59.370;18.016;2024-02-04T07:48:06;98832.94;;;1.83;60.06
14295;BME280;7231;59.370;18.016;2024-02-04T07:50:36;98829.59;;;1.87;59.69
14295;BME280;7231;59.370;18.016;2024-02-04T07:53:04;98824.53;;;1.90;59.79
14295;BME280;7231;59.370;18.016;2024-02-04T07:55:32;98829.75;;;1.92;59.15
14295;BME280;7231;59.370;18.016;2024-02-04T07:58:01;98828.72;;;1.87;59.32
14295;BME280;7231;59.370;18.016;2024-02-04T08:00:29;98831.50;;;1.93;59.28
14295;BME280;7231;59.370;18.016;2024-02-04T08:02:57;98834.06;;;1.93;59.23
14295;BME280;7231;59.370;18.016;2024-02-04T08:05:27;98827.94;;;1.89;59.72
14295;BME280;7231;59.370;18.016;2024-02-04T08:07:55;98831.44;;;1.91;59.71
14295;BME280;7231;59.370;18.016;2024-02-04T08:10:23;98831.50;;;1.93;59.61
14295;BME280;7231;59.370;18.016;2024-02-04T08:12:52;98832.41;;;1.95;59.33
14295;BME280;7231;59.370;18.016;2024-02-04T08:15:20;98834.16;;;1.96;59.96
14295;BME280;7231;59.370;18.016;2024-02-04T08:17:49;98833.28;;;1.95;59.61
14295;BME280;7231;59.370;18.016;2024-02-04T08:20:18;98840.34;;;2.01;59.32
14295;BME280;7231;59.370;18.016;2024-02-04T08:22:47;98834.44;;;2.05;59.36
14295;BME280;7231;59.370;18.016;2024-02-04T08:25:15;98834.50;;;2.07;59.52
14295;BME280;7231;59.370;18.016;2024-02-04T08:27:44;98834.53;;;2.08;59.63
14295;BME280;7231;59.370;18.016;2024-02-04T08:30:12;98842.34;;;2.10;59.55
14295;BME280;7231;59.370;18.016;2024-02-04T08:32:41;98827.69;;;2.10;60.15
14295;BME280;7231;59.370;18.016;2024-02-04T08:35:09;98826.91;;;2.13;60.31
14295;BME280;7231;59.370;18.016;2024-02-04T08:37:37;98724.41;;;1.53;60.05
14295;BME280;7231;59.370;18.016;2024-02-04T08:40:08;98812.19;;;2.10;60.07
14295;BME280;7231;59.370;18.016;2024-02-04T08:42:37;98828.78;;;2.18;60.58
14295;BME280;7231;59.370;18.016;2024-02-04T08:45:06;98822.56;;;2.12;60.57
14295;BME280;7231;59.370;18.016;2024-02-04T08:47:34;98823.72;;;2.21;60.88
14295;BME280;7231;59.370;18.016;2024-02-04T08:50:02;98830.63;;;2.22;61.29
14295;BME280;7231;59.370;18.016;2024-02-04T08:52:31;98837.56;;;2.23;61.46
14295;BME280;7231;59.370;18.016;2024-02-04T08:54:59;98828.97;;;2.24;61.72
14295;BME280;7231;59.370;18.016;2024-02-04T08:57:32;98822.97;;;2.25;61.80
14295;BME280;7231;59.370;18.016;2024-02-04T09:00:00;98816.03;;;2.24;61.96
14295;BME280;7231;59.370;18.016;2024-02-04T09:02:28;98820.38;;;2.25;62.44
14295;BME280;7231;59.370;18.016;2024-02-04T09:04:59;98813.50;;;2.26;63.06
14295;BME280;7231;59.370;18.016;2024-02-04T09:07:27;98785.50;;;2.11;63.23
14295;BME280;7231;59.370;18.016;2024-02-04T09:09:59;98811.03;;;2.31;62.89
14295;BME280;7231;59.370;18.016;2024-02-04T09:12:28;98820.56;;;2.32;63.69
14295;BME280;7231;59.370;18.016;2024-02-04T09:14:57;98827.53;;;2.34;63.45
14295;BME280;7231;59.370;18.016;2024-02-04T09:17:26;98804.16;;;2.31;63.88
14295;BME280;7231;59.370;18.016;2024-02-04T09:19:54;98802.50;;;2.33;63.68
14295;BME280;7231;59.370;18.016;2024-02-04T09:22:22;98822.59;;;2.43;64.20
14295;BME280;7231;59.370;18.016;2024-02-04T09:24:50;98819.28;;;2.47;64.19
14295;BME280;7231;59.370;18.016;2024-02-04T09:27:19;98813.34;;;2.51;64.17
14295;BME280;7231;59.370;18.016;2024-02-04T09:29:48;98809.97;;;2.54;64.29
14295;BME280;7231;59.370;18.016;2024-02-04T09:32:17;98806.59;;;2.56;63.99
14295;BME280;7231;59.370;18.016;2024-02-04T09:34:46;98814.41;;;2.58;64.32
14295;BME280;7231;59.370;18.016;2024-02-04T09:37:14;98802.38;;;2.60;64.94
14295;BME280;7231;59.370;18.016;2024-02-04T09:39:43;98796.19;;;2.55;65.15
14295;BME280;7231;59.370;18.016;2024-02-04T09:42:18;98761.34;;;2.41;65.27
14295;BME280;7231;59.370;18.016;2024-02-04T09:44:47;98790.28;;;2.59;65.11
14295;BME280;7231;59.370;18.016;2024-02-04T09:47:17;98794.63;;;2.60;65.67
14295;BME280;7231;59.370;18.016;2024-02-04T09:49:46;98784.16;;;2.55;66.02
14295;BME280;7231;59.370;18.016;2024-02-04T09:52:18;98785.06;;;2.57;66.32
14295;BME280;7231;59.370;18.016;2024-02-04T09:54:50;98796.41;;;2.64;66.71
14295;BME280;7231;59.370;18.016;2024-02-04T09:57:22;98802.50;;;2.66;66.16
14295;BME280;7231;59.370;18.016;2024-02-04T09:59:50;98810.31;;;2.68;66.28
14295;BME280;7231;59.370;18.016;2024-02-04T10:02:20;98819.84;;;2.70;66.57
14295;BME280;7231;59.370;18.016;2024-02-04T10:04:48;98803.63;;;2.76;66.60
14295;BME280;7231;59.370;18.016;2024-02-04T10:07:17;98797.56;;;2.75;66.28
14295;BME280;7231;59.370;18.016;2024-02-04T10:09:46;98813.38;;;2.86;66.42
14295;BME280;7231;59.370;18.016;2024-02-04T10:12:15;98807.44;;;2.90;66.69
14295;BME280;7231;59.370;18.016;2024-02-04T10:14:43;98813.53;;;2.92;66.56
14295;BME280;7231;59.370;18.016;2024-02-04T10:17:13;98804.13;;;2.96;66.58
14295;BME280;7231;59.370;18.016;2024-02-04T10:19:44;98807.56;;;2.94;66.42
14295;BME280;7231;59.370;18.016;2024-02-04T10:22:14;98804.13;;;2.96;66.84
14295;BME280;7231;59.370;18.016;2024-02-04T10:24:44;98787.63;;;2.90;66.83
14295;BME280;7231;59.370;18.016;2024-02-04T10:27:15;98736.16;;;2.68;66.98
14295;BME280;7231;59.370;18.016;2024-02-04T10:29:58;98593.69;;;1.90;67.66
14295;BME280;7231;59.370;18.016;2024-02-04T10:32:26;98712.41;;;2.48;67.93
14295;BME280;7231;59.370;18.016;2024-02-04T10:34:57;98649.59;;;2.19;67.89
14295;BME280;7231;59.370;18.016;2024-02-04T10:37:26;98724.13;;;2.70;68.70
14295;BME280;7231;59.370;18.016;2024-02-04T10:39:56;98775.66;;;2.96;68.99
14295;BME280;7231;59.370;18.016;2024-02-04T10:42:26;98784.34;;;2.98;69.52
14295;BME280;7231;59.370;18.016;2024-02-04T10:44:55;98774.03;;;2.99;69.43
14295;BME280;7231;59.370;18.016;2024-02-04T10:47:34;98765.31;;;2.96;69.86
14295;BME280;7231;59.370;18.016;2024-02-04T10:50:07;98771.47;;;3.01;70.23
14295;BME280;7231;59.370;18.016;2024-02-04T10:52:37;98768.81;;;2.98;70.12
14295;BME280;7231;59.370;18.016;2024-02-04T10:55:07;98755.78;;;2.94;70.52
14295;BME280;7231;59.370;18.016;2024-02-04T10:57:37;98744.41;;;2.88;70.64
14295;BME280;7231;59.370;18.016;2024-02-04T11:00:07;98651.66;;;2.33;70.80
14295;BME280;7231;59.370;18.016;2024-02-04T11:02:38;98746.97;;;2.86;71.22
14295;BME280;7231;59.370;18.016;2024-02-04T11:05:09;98752.97;;;2.85;71.96
14295;BME280;7231;59.370;18.016;2024-02-04T11:07:38;98738.19;;;2.80;72.40
14295;BME280;7231;59.370;18.016;2024-02-04T11:10:07;98732.28;;;2.85;72.71
14295;BME280;7231;59.370;18.016;2024-02-04T11:12:37;98730.38;;;2.78;72.79
14295;BME280;7231;59.370;18.016;2024-02-04T11:15:09;98717.59;;;2.84;73.93
14295;BME280;7231;59.370;18.016;2024-02-04T11:18:13;98719.72;;;3.01;74.33
14295;BME280;7231;59.370;18.016;2024-02-04T11:21:02;98712.47;;;3.23;75.56
14295;BME280;7231;59.370;18.016;2024-02-04T11:23:42;98689.84;;;3.54;76.34
14295;BME280;7231;59.370;18.016;2024-02-04T11:26:15;98694.81;;;3.85;75.73
14295;BME280;7231;59.370;18.016;2024-02-04T11:28:44;98694.94;;;3.91;75.33
14295;BME280;7231;59.370;18.016;2024-02-04T11:31:17;98707.31;;;4.06;74.29
14295;BME280;7231;59.370;18.016;2024-02-04T11:33:46;98697.31;;;4.24;74.03
14295;BME280;7231;59.370;18.016;2024-02-04T11:36:15;98710.91;;;4.60;73.43
14295;BME280;7231;59.370;18.016;2024-02-04T11:38:48;98633.84;;;4.54;73.00
14295;BME280;7231;59.370;18.016;2024-02-04T11:41:21;98707.56;;;5.19;71.70
14295;BME280;7231;59.370;18.016;2024-02-04T11:43:52;98702.56;;;5.35;70.84
14295;BME280;7231;59.370;18.016;2024-02-04T11:46:27;98696.78;;;5.55;70.17
14295;BME280;7231;59.370;18.016;2024-02-04T11:48:56;98705.31;;;5.45;68.41
14295;BME280;7231;59.370;18.016;2024-02-04T11:51:26;98689.44;;;5.24;68.46
14295;BME280;7231;59.370;18.016;2024-02-04T11:53:55;98687.53;;;5.11;68.25
14295;BME280;7231;59.370;18.016;2024-02-04T11:56:24;98707.56;;;5.18;67.88
14295;BME280;7231;59.370;18.016;2024-02-04T11:58:53;98695.41;;;5.17;68.44
14295;BME280;7231;59.370;18.016;2024-02-04T12:01:22;98690.38;;;5.31;68.54
14295;BME280;7231;59.370;18.016;2024-02-04T12:03:51;98693.25;;;5.50;67.76
14295;BME280;7231;59.370;18.016;2024-02-04T12:06:20;98687.16;;;5.48;67.88
14295;BME280;7231;59.370;18.016;2024-02-04T12:08:50;98693.09;;;5.38;67.19
14295;BME280;7231;59.370;18.016;2024-02-04T12:11:18;98685.16;;;5.28;67.51
14295;BME280;7231;59.370;18.016;2024-02-04T12:13:47;98689.34;;;5.16;67.58
14295;BME280;7231;59.370;18.016;2024-02-04T12:16:15;98677.69;;;4.90;67.64
14295;BME280;7231;59.370;18.016;2024-02-04T12:18:48;98682.03;;;4.91;67.78
14295;BME280;7231;59.370;18.016;2024-02-04T12:21:17;98684.53;;;4.85;68.50
14295;BME280;7231;59.370;18.016;2024-02-04T12:23:47;98688.66;;;4.72;68.62
14295;BME280;7231;59.370;18.016;2024-02-04T12:26:16;98675.75;;;4.78;68.85
14295;BME280;7231;59.370;18.016;2024-02-04T12:28:44;98669.03;;;4.89;68.94
14295;BME280;7231;59.370;18.016;2024-02-04T12:31:16;98664.78;;;4.96;68.63
14295;BME280;7231;59.370;18.016;2024-02-04T12:33:52;98660.38;;;4.91;68.92
14295;BME280;7231;59.370;18.016;2024-02-04T12:36:22;98658.75;;;4.97;68.92
14295;BME280;7231;59.370;18.016;2024-02-04T12:38:52;98660.47;;;4.97;68.75
14295;BME280;7231;59.370;18.016;2024-02-04T12:41:22;98662.97;;;4.91;68.30
14295;BME280;7231;59.370;18.016;2024-02-04T12:43:50;98624.41;;;4.59;69.18
14295;BME280;7231;59.370;18.016;2024-02-04T12:46:19;98644.63;;;4.80;69.43
14295;BME280;7231;59.370;18.016;2024-02-04T12:48:51;98665.28;;;4.72;68.93
14295;BME280;7231;59.370;18.016;2024-02-04T12:51:26;98657.41;;;4.66;69.01
14295;BME280;7231;59.370;18.016;2024-02-04T12:54:05;98656.59;;;4.70;69.48
14295;BME280;7231;59.370;18.016;2024-02-04T12:56:45;98660.88;;;4.68;69.37
14295;BME280;7231;59.370;18.016;2024-02-04T12:59:26;98661.84;;;4.73;69.23
14295;BME280;7231;59.370;18.016;2024-02-04T13:01:56;98653.16;;;4.71;69.30
14295;BME280;7231;59.370;18.016;2024-02-04T13:04:24;98650.56;;;4.71;69.11
14295;BME280;7231;59.370;18.016;2024-02-04T13:06:53;98656.75;;;4.79;69.17
14295;BME280;7231;59.370;18.016;2024-02-04T13:09:21;98657.78;;;4.91;68.82
14295;BME280;7231;59.370;18.016;2024-02-04T13:11:51;98640.56;;;4.96;69.29
14295;BME280;7231;59.370;18.016;2024-02-04T13:14:19;98643.22;;;5.00;69.29
14295;BME280;7231;59.370;18.016;2024-02-04T13:16:49;98647.59;;;5.03;68.76
14295;BME280;7231;59.370;18.016;2024-02-04T13:19:17;98623.94;;;4.84;68.25
14295;BME280;7231;59.370;18.016;2024-02-04T13:21:45;98656.34;;;5.11;68.70